Time;durP1;ratioP1;P1;durP2;ratioP2;P2;SDS_P1;SDS_P2;PMS_P1;PMS_P2;Temp;Humidity;BMP_temperature;BMP_pressure;BME280_temperature;BME280_humidity;BME280_pressure;Samples;Min_cycle;Max_cycle;Signal;HPM_P1;HPM_P2
2023/01/06 00:01:12;;;;;;;66.78;47.95;;;;;;;;;;5116425;27;20035;-76
2023/01/06 00:03:38;;;;;;;61.40;46.75;;;;;;;;;;5112691;27;20035;-77
2023/01/06 00:06:04;;;;;;;63.28;48.42;;;;;;;;;;5117371;27;21408;-74
2023/01/06 00:08:30;;;;;;;71.55;45.92;;;;;;;;;;5096136;27;20019;-74
2023/01/06 00:10:56;;;;;;;53.97;40.72;;;;;;;;;;5105754;27;20521;-74
2023/01/06 00:13:21;;;;;;;48.78;37.33;;;;;;;;;;5094743;27;20038;-77
2023/01/06 00:15:46;;;;;;;48.13;34.97;;;;;;;;;;5098445;27;20059;-73
2023/01/06 00:18:12;;;;;;;69.10;47.80;;;;;;;;;;5094694;27;20015;-77
2023/01/06 00:20:37;;;;;;;134.55;84.00;;;;;;;;;;5116116;27;20031;-75
2023/01/06 00:23:03;;;;;;;113.00;78.22;;;;;;;;;;5103200;27;20020;-73
2023/01/06 00:25:28;;;;;;;90.25;65.78;;;;;;;;;;5102664;27;20156;-77
2023/01/06 00:27:54;;;;;;;72.55;53.63;;;;;;;;;;5114968;27;20117;-73
2023/01/06 00:30:19;;;;;;;112.40;87.15;;;;;;;;;;5102040;27;20027;-75
2023/01/06 00:32:45;;;;;;;106.10;81.60;;;;;;;;;;5112500;27;20327;-74
2023/01/06 00:35:10;;;;;;;78.95;59.35;;;;;;;;;;5111504;27;20461;-75
2023/01/06 00:37:35;;;;;;;62.35;48.67;;;;;;;;;;5101058;27;20031;-74
2023/01/06 00:40:00;;;;;;;60.00;47.92;;;;;;;;;;5103985;27;20016;-74
2023/01/06 00:42:26;;;;;;;46.55;36.47;;;;;;;;;;5104870;27;20042;-75
2023/01/06 00:44:51;;;;;;;52.42;40.55;;;;;;;;;;5107370;27;20027;-74
2023/01/06 00:47:17;;;;;;;45.13;36.42;;;;;;;;;;5115458;27;20044;-74
2023/01/06 00:49:42;;;;;;;53.70;42.70;;;;;;;;;;5113947;27;20031;-74
2023/01/06 00:52:08;;;;;;;55.80;43.25;;;;;;;;;;5113485;27;20445;-74
2023/01/06 00:54:35;;;;;;;51.85;42.13;;;;;;;;;;5113474;27;20068;-75
2023/01/06 00:57:00;;;;;;;40.65;32.00;;;;;;;;;;5113762;27;20020;-73
2023/01/06 00:59:26;;;;;;;33.92;27.40;;;;;;;;;;5098890;27;20058;-75
2023/01/06 01:01:52;;;;;;;54.80;44.55;;;;;;;;;;5110607;27;20432;-74
2023/01/06 01:04:18;;;;;;;46.33;36.90;;;;;;;;;;5111956;27;20028;-75
2023/01/06 01:06:44;;;;;;;38.92;30.63;;;;;;;;;;5118176;27;20324;-72
2023/01/06 01:09:12;;;;;;;40.20;30.83;;;;;;;;;;5116152;27;20046;-73
2023/01/06 01:14:21;;;;;;;38.63;28.85;;;;;;;;;;5097139;27;20074;-73
2023/01/06 01:16:46;;;;;;;32.13;25.50;;;;;;;;;;5099669;27;20023;-73
2023/01/06 01:19:12;;;;;;;29.58;22.60;;;;;;;;;;5106094;27;20015;-75
2023/01/06 01:21:38;;;;;;;27.92;21.92;;;;;;;;;;5113708;27;20066;-74
2023/01/06 01:24:03;;;;;;;29.30;22.50;;;;;;;;;;5116140;27;20024;-76
2023/01/06 01:26:28;;;;;;;28.70;23.15;;;;;;;;;;5114600;27;20023;-74
2023/01/06 01:28:54;;;;;;;29.63;24.10;;;;;;;;;;5114790;27;20023;-77
2023/01/06 01:31:19;;;;;;;55.30;37.13;;;;;;;;;;5104723;28;20023;-74
2023/01/06 01:33:44;;;;;;;66.15;42.22;;;;;;;;;;5107953;28;20129;-74
2023/01/06 01:36:12;;;;;;;37.00;26.92;;;;;;;;;;5112718;28;20030;-73
2023/01/06 01:38:38;;;;;;;28.92;21.60;;;;;;;;;;5113445;28;20115;-76
2023/01/06 01:41:03;;;;;;;28.38;21.20;;;;;;;;;;5105135;28;20042;-73
2023/01/06 01:43:42;;;;;;;35.42;25.27;;;;;;;;;;5105859;28;20069;-75
2023/01/06 01:46:07;;;;;;;40.08;26.15;;;;;;;;;;5108050;28;20045;-74
2023/01/06 01:48:34;;;;;;;41.78;30.60;;;;;;;;;;5100964;28;20431;-75
2023/01/06 01:51:01;;;;;;;60.10;40.60;;;;;;;;;;5113970;28;20034;-75
2023/01/06 01:53:37;;;;;;;104.75;65.03;;;;;;;;;;5115805;28;20048;-75
2023/01/06 01:56:06;;;;;;;65.10;42.58;;;;;;;;;;5114916;28;20562;-74
2023/01/06 01:58:35;;;;;;;39.60;28.30;;;;;;;;;;5103939;28;20100;-73
2023/01/06 02:01:01;;;;;;;28.60;22.10;;;;;;;;;;5095840;28;20031;-74
2023/01/06 02:03:26;;;;;;;28.25;22.20;;;;;;;;;;5090172;28;20039;-75
2023/01/06 02:05:54;;;;;;;26.70;20.40;;;;;;;;;;5109388;28;20048;-73
2023/01/06 02:08:28;;;;;;;30.45;22.27;;;;;;;;;;5109167;28;20024;-73
2023/01/06 02:10:53;;;;;;;29.90;23.38;;;;;;;;;;5104831;27;20023;-72
2023/01/06 02:13:18;;;;;;;26.65;21.48;;;;;;;;;;5116696;27;20042;-73
2023/01/06 02:15:44;;;;;;;28.33;23.48;;;;;;;;;;5117240;27;20429;-75
2023/01/06 02:18:45;;;;;;;29.55;23.52;;;;;;;;;;5116635;27;20023;-74
2023/01/06 02:21:30;;;;;;;40.38;28.50;;;;;;;;;;5060809;27;20027;-76
2023/01/06 02:24:13;;;;;;;30.35;24.92;;;;;;;;;;5102076;27;20484;-73
2023/01/06 02:26:45;;;;;;;27.00;21.42;;;;;;;;;;5114478;27;20433;-74
2023/01/06 02:29:25;;;;;;;24.20;20.92;;;;;;;;;;5106244;27;20031;-73
2023/01/06 02:31:54;;;;;;;24.42;20.08;;;;;;;;;;5118178;27;20035;-76
2023/01/06 02:34:38;;;;;;;22.40;19.55;;;;;;;;;;5116422;27;20055;-73
2023/01/06 02:37:06;;;;;;;23.55;19.05;;;;;;;;;;5109476;27;20030;-73
2023/01/06 02:39:34;;;;;;;23.80;18.85;;;;;;;;;;5100739;27;20336;-73
2023/01/06 02:42:16;;;;;;;23.08;18.67;;;;;;;;;;5117150;27;20028;-75
2023/01/06 02:44:41;;;;;;;25.42;21.13;;;;;;;;;;5114052;27;20039;-73
2023/01/06 02:47:06;;;;;;;36.40;27.20;;;;;;;;;;5109470;27;20362;-71
2023/01/06 02:49:50;;;;;;;23.02;18.60;;;;;;;;;;5115157;27;20043;-75
2023/01/06 02:52:21;;;;;;;21.25;17.77;;;;;;;;;;5112346;27;20134;-72
2023/01/06 02:55:03;;;;;;;22.92;19.00;;;;;;;;;;5112311;27;20016;-74
2023/01/06 02:57:36;;;;;;;28.67;22.58;;;;;;;;;;5103114;27;20027;-73
2023/01/06 03:00:01;;;;;;;25.85;19.10;;;;;;;;;;5116199;27;20070;-73
2023/01/06 03:02:28;;;;;;;23.95;17.05;;;;;;;;;;5115743;27;20027;-73
2023/01/06 03:04:55;;;;;;;20.63;16.73;;;;;;;;;;5119861;27;20019;-73
2023/01/06 03:07:21;;;;;;;19.17;16.38;;;;;;;;;;5108448;27;20042;-73
2023/01/06 03:09:50;;;;;;;22.98;18.13;;;;;;;;;;5101696;27;20038;-72
2023/01/06 03:12:18;;;;;;;18.88;16.30;;;;;;;;;;5101720;27;20131;-75
2023/01/06 03:14:45;;;;;;;20.85;16.75;;;;;;;;;;5112668;27;20019;-74
2023/01/06 03:17:11;;;;;;;19.85;16.13;;;;;;;;;;5119308;27;20023;-76
2023/01/06 03:19:36;;;;;;;19.88;16.67;;;;;;;;;;5113182;27;20043;-73
2023/01/06 03:22:02;;;;;;;21.63;14.25;;;;;;;;;;5113407;27;20023;-73
2023/01/06 03:24:28;;;;;;;18.25;13.05;;;;;;;;;;5115384;27;20019;-73
2023/01/06 03:26:53;;;;;;;13.32;10.45;;;;;;;;;;5115495;27;20034;-75
2023/01/06 03:29:20;;;;;;;13.38;9.88;;;;;;;;;;5094828;27;20058;-73
2023/01/06 03:31:51;;;;;;;11.50;8.68;;;;;;;;;;5115994;27;20027;-73
2023/01/06 03:34:35;;;;;;;11.38;9.25;;;;;;;;;;5116403;27;20057;-77
2023/01/06 03:37:22;;;;;;;12.38;8.68;;;;;;;;;;5117025;27;20019;-74
2023/01/06 03:39:56;;;;;;;12.68;9.43;;;;;;;;;;5117334;27;20011;-72
2023/01/06 03:45:17;;;;;;;14.32;10.05;;;;;;;;;;5091707;27;20034;-72
2023/01/06 03:47:42;;;;;;;40.47;23.23;;;;;;;;;;5110668;27;20076;-73
2023/01/06 03:50:31;;;;;;;22.55;15.13;;;;;;;;;;5112857;27;20030;-71
2023/01/06 03:52:59;;;;;;;15.75;11.13;;;;;;;;;;5092677;27;20047;-73
2023/01/06 03:55:28;;;;;;;16.08;10.70;;;;;;;;;;5112880;27;20123;-73
2023/01/06 03:57:55;;;;;;;33.55;21.63;;;;;;;;;;5115348;27;20126;-77
2023/01/06 04:00:23;;;;;;;23.73;16.27;;;;;;;;;;5112502;27;20030;-73
2023/01/06 04:02:48;;;;;;;16.48;11.23;;;;;;;;;;5103180;27;20434;-74
2023/01/06 04:05:18;;;;;;;12.05;9.18;;;;;;;;;;5111622;27;20024;-74
2023/01/06 04:07:43;;;;;;;;;;;;;;;;;;5104326;27;20026;-75
2023/01/06 04:10:09;;;;;;;11.25;8.55;;;;;;;;;;5100295;27;20243;-74
2023/01/06 04:12:40;;;;;;;12.63;9.55;;;;;;;;;;5103243;27;20063;-73
2023/01/06 04:15:07;;;;;;;10.35;8.05;;;;;;;;;;5091859;27;20427;-73
2023/01/06 04:17:32;;;;;;;17.35;11.65;;;;;;;;;;5101983;27;20435;-75
2023/01/06 04:19:57;;;;;;;16.40;10.82;;;;;;;;;;5107312;27;20039;-74
2023/01/06 04:22:23;;;;;;;17.70;11.50;;;;;;;;;;5108966;27;20031;-74
2023/01/06 04:24:48;;;;;;;16.92;11.20;;;;;;;;;;5088692;27;20022;-74
2023/01/06 04:27:13;;;;;;;14.15;9.50;;;;;;;;;;5117248;27;20362;-73
2023/01/06 04:29:39;;;;;;;9.32;6.43;;;;;;;;;;5115116;27;20019;-73
2023/01/06 04:32:04;;;;;;;11.45;8.13;;;;;;;;;;5114722;27;20131;-73
2023/01/06 04:34:29;;;;;;;14.88;9.65;;;;;;;;;;5114056;27;20035;-73
2023/01/06 04:36:54;;;;;;;19.98;14.52;;;;;;;;;;5078643;27;20028;-74
2023/01/06 04:39:20;;;;;;;12.60;8.80;;;;;;;;;;5096009;27;20647;-76
2023/01/06 04:41:45;;;;;;;12.55;9.82;;;;;;;;;;5114230;27;20224;-72
2023/01/06 04:44:10;;;;;;;8.20;7.10;;;;;;;;;;5117555;27;20043;-74
2023/01/06 04:46:36;;;;;;;11.20;8.63;;;;;;;;;;5115668;27;20135;-75
2023/01/06 04:49:01;;;;;;;17.30;13.40;;;;;;;;;;5105773;27;20402;-73
2023/01/06 04:51:26;;;;;;;14.15;9.80;;;;;;;;;;5098686;27;20025;-76
2023/01/06 04:53:51;;;;;;;9.50;7.70;;;;;;;;;;5094816;27;20031;-74
2023/01/06 04:56:17;;;;;;;9.55;7.68;;;;;;;;;;5091131;27;20033;-72
2023/01/06 04:58:42;;;;;;;12.15;8.38;;;;;;;;;;5096140;27;20339;-74
2023/01/06 05:01:09;;;;;;;11.98;8.60;;;;;;;;;;5112662;27;20023;-73
2023/01/06 05:03:35;;;;;;;13.73;7.82;;;;;;;;;;5116487;27;20023;-77
2023/01/06 05:06:01;;;;;;;9.43;7.80;;;;;;;;;;5111176;27;20043;-73
2023/01/06 05:08:27;;;;;;;12.20;7.38;;;;;;;;;;5116242;27;20154;-74
2023/01/06 05:10:59;;;;;;;10.13;6.20;;;;;;;;;;5116102;27;20107;-75
2023/01/06 05:13:24;;;;;;;14.07;9.50;;;;;;;;;;5112113;27;20062;-73
2023/01/06 05:15:49;;;;;;;8.75;6.95;;;;;;;;;;5113960;27;20949;-76
2023/01/06 05:18:15;;;;;;;11.63;8.60;;;;;;;;;;5079045;28;20027;-76
2023/01/06 05:20:40;;;;;;;6.65;4.90;;;;;;;;;;5110898;27;20130;-74
2023/01/06 05:23:05;;;;;;;7.20;5.80;;;;;;;;;;5108966;27;20358;-75
2023/01/06 05:25:30;;;;;;;6.95;4.90;;;;;;;;;;5110749;27;20102;-75
2023/01/06 05:27:56;;;;;;;10.50;6.78;;;;;;;;;;5111129;27;20024;-74
2023/01/06 05:30:21;;;;;;;11.82;7.47;;;;;;;;;;5098386;28;20736;-74
2023/01/06 05:32:46;;;;;;;8.65;6.35;;;;;;;;;;5113185;28;20066;-72
2023/01/06 05:35:12;;;;;;;13.50;9.95;;;;;;;;;;5090939;28;20050;-75
2023/01/06 05:37:37;;;;;;;17.42;15.63;;;;;;;;;;5095418;28;20035;-74
2023/01/06 05:40:02;;;;;;;7.38;6.13;;;;;;;;;;5088539;28;20102;-76
2023/01/06 05:42:28;;;;;;;8.02;7.07;;;;;;;;;;5096986;28;20361;-76
2023/01/06 05:44:53;;;;;;;14.00;8.32;;;;;;;;;;5094946;27;20023;-74
2023/01/06 05:47:18;;;;;;;9.85;6.63;;;;;;;;;;5093615;27;20063;-75
2023/01/06 05:49:43;;;;;;;11.88;7.47;;;;;;;;;;5094281;27;20032;-78
2023/01/06 05:52:09;;;;;;;16.65;11.73;;;;;;;;;;5092762;27;20031;-75
2023/01/06 05:54:34;;;;;;;22.70;15.25;;;;;;;;;;5102849;27;20027;-75
2023/01/06 05:56:59;;;;;;;15.57;11.13;;;;;;;;;;5109606;27;20114;-75
2023/01/06 05:59:24;;;;;;;7.93;5.18;;;;;;;;;;5112742;27;20421;-73
2023/01/06 06:01:50;;;;;;;9.75;6.20;;;;;;;;;;5119794;27;20027;-75
2023/01/06 06:04:15;;;;;;;12.18;8.07;;;;;;;;;;5120368;27;20035;-76
2023/01/06 06:06:40;;;;;;;7.78;6.10;;;;;;;;;;5119551;27;20046;-73
2023/01/06 06:09:06;;;;;;;8.43;6.55;;;;;;;;;;5120499;27;20118;-75
2023/01/06 06:11:31;;;;;;;7.80;6.35;;;;;;;;;;5100218;27;20027;-73
2023/01/06 06:13:57;;;;;;;10.63;6.97;;;;;;;;;;5121329;27;20035;-73
2023/01/06 06:16:23;;;;;;;10.68;7.93;;;;;;;;;;5121153;27;20515;-73
2023/01/06 06:18:56;;;;;;;8.85;6.90;;;;;;;;;;5118712;27;20602;-74
2023/01/06 06:21:22;;;;;;;12.32;8.77;;;;;;;;;;5116790;27;20102;-75
2023/01/06 06:23:48;;;;;;;18.85;15.25;;;;;;;;;;5116835;27;20019;-76
2023/01/06 06:26:14;;;;;;;6.63;5.60;;;;;;;;;;5120746;27;20473;-75
2023/01/06 06:28:39;;;;;;;11.75;8.68;;;;;;;;;;5116215;27;20043;-73
2023/01/06 06:31:05;;;;;;;10.10;7.07;;;;;;;;;;5117803;27;20023;-74
2023/01/06 06:33:30;;;;;;;8.57;6.70;;;;;;;;;;5120750;27;20030;-74
2023/01/06 06:35:56;;;;;;;11.88;8.10;;;;;;;;;;5117789;27;21214;-73
2023/01/06 06:38:22;;;;;;;16.52;11.93;;;;;;;;;;5116009;27;20020;-74
2023/01/06 06:40:47;;;;;;;12.75;10.25;;;;;;;;;;5119058;27;20059;-75
2023/01/06 06:43:12;;;;;;;11.18;7.75;;;;;;;;;;5105929;27;20396;-74
2023/01/06 06:45:37;;;;;;;8.95;7.28;;;;;;;;;;5120024;27;20023;-75
2023/01/06 06:48:03;;;;;;;10.23;6.47;;;;;;;;;;5114683;27;20043;-76
2023/01/06 06:50:28;;;;;;;12.02;8.50;;;;;;;;;;5116221;27;20349;-74
2023/01/06 06:52:54;;;;;;;9.75;7.70;;;;;;;;;;5116991;27;20126;-75
2023/01/06 06:55:19;;;;;;;15.70;12.48;;;;;;;;;;5093636;27;20031;-75
2023/01/06 06:57:44;;;;;;;14.75;11.40;;;;;;;;;;5093516;27;20034;-73
2023/01/06 07:00:10;;;;;;;20.13;14.20;;;;;;;;;;5087704;27;20046;-73
2023/01/06 07:02:35;;;;;;;14.77;12.18;;;;;;;;;;5100924;27;20027;-73
2023/01/06 07:05:02;;;;;;;11.82;9.68;;;;;;;;;;5093925;27;20139;-75
2023/01/06 07:07:27;;;;;;;5.32;4.75;;;;;;;;;;5098959;27;20434;-72
2023/01/06 07:09:52;;;;;;;28.20;22.05;;;;;;;;;;5104543;27;20023;-77
2023/01/06 07:12:18;;;;;;;16.85;13.02;;;;;;;;;;5103903;27;20019;-75
2023/01/06 07:14:43;;;;;;;15.18;10.30;;;;;;;;;;5083961;27;20410;-73
2023/01/06 07:17:08;;;;;;;10.13;8.40;;;;;;;;;;5096063;27;20027;-73
2023/01/06 07:19:33;;;;;;;15.05;10.57;;;;;;;;;;5099655;27;20119;-73
2023/01/06 07:21:59;;;;;;;12.43;10.15;;;;;;;;;;5103986;27;20023;-73
2023/01/06 07:24:24;;;;;;;17.52;11.45;;;;;;;;;;5105717;27;20079;-73
2023/01/06 07:26:49;;;;;;;20.92;14.95;;;;;;;;;;5103673;27;20030;-73
2023/01/06 07:29:15;;;;;;;31.75;21.05;;;;;;;;;;5103078;27;20354;-74
2023/01/06 07:31:40;;;;;;;10.38;7.13;;;;;;;;;;5103252;27;20455;-75
2023/01/06 07:34:05;;;;;;;11.93;8.15;;;;;;;;;;5087100;27;20031;-73
2023/01/06 07:36:31;;;;;;;20.40;14.15;;;;;;;;;;5102923;27;20050;-76
2023/01/06 07:38:56;;;;;;;26.90;18.80;;;;;;;;;;5105235;27;20347;-74
2023/01/06 07:41:21;;;;;;;50.05;30.08;;;;;;;;;;5101321;27;20114;-72
2023/01/06 07:43:46;;;;;;;23.77;17.33;;;;;;;;;;5103749;27;20027;-76
2023/01/06 07:46:12;;;;;;;33.80;20.05;;;;;;;;;;5103222;27;20027;-75
2023/01/06 07:48:37;;;;;;;54.15;32.25;;;;;;;;;;5100865;27;20342;-74
2023/01/06 07:51:02;;;;;;;30.52;20.73;;;;;;;;;;5102847;27;20367;-75
2023/01/06 07:53:28;;;;;;;17.50;12.13;;;;;;;;;;5099504;27;20019;-75
2023/01/06 07:55:53;;;;;;;32.90;22.73;;;;;;;;;;5103012;27;20042;-74
2023/01/06 07:58:19;;;;;;;32.85;23.65;;;;;;;;;;5101725;27;20051;-74
2023/01/06 08:00:44;;;;;;;14.95;10.05;;;;;;;;;;5103106;27;20034;-77
2023/01/06 08:03:10;;;;;;;54.92;37.97;;;;;;;;;;5089465;27;20035;-78
2023/01/06 08:05:36;;;;;;;30.30;20.35;;;;;;;;;;5116026;27;20110;-74
2023/01/06 08:08:02;;;;;;;37.03;24.52;;;;;;;;;;5105356;27;20027;-73
2023/01/06 08:10:27;;;;;;;64.53;41.58;;;;;;;;;;5100772;27;20031;-75
2023/01/06 08:12:52;;;;;;;150.38;88.95;;;;;;;;;;5101435;27;20366;-74
2023/01/06 08:15:18;;;;;;;49.13;35.42;;;;;;;;;;5101225;27;20055;-73
2023/01/06 08:17:43;;;;;;;39.50;25.60;;;;;;;;;;5102446;27;20031;-75
2023/01/06 08:20:08;;;;;;;111.55;75.35;;;;;;;;;;5103307;27;20430;-75
2023/01/06 08:22:34;;;;;;;42.40;30.88;;;;;;;;;;5103914;27;20051;-75
2023/01/06 08:24:59;;;;;;;36.38;28.20;;;;;;;;;;5107383;27;20137;-75
2023/01/06 08:27:25;;;;;;;26.70;19.30;;;;;;;;;;5118406;27;20328;-76
2023/01/06 08:29:53;;;;;;;28.35;16.48;;;;;;;;;;5115791;27;20019;-74
2023/01/06 08:32:18;;;;;;;21.20;15.75;;;;;;;;;;5115831;27;20035;-78
2023/01/06 08:34:44;;;;;;;12.30;8.45;;;;;;;;;;5115328;27;20159;-74
2023/01/06 08:37:09;;;;;;;11.13;7.40;;;;;;;;;;5117769;27;20027;-73
2023/01/06 08:39:34;;;;;;;11.00;6.95;;;;;;;;;;5116144;27;20410;-76
2023/01/06 08:42:00;;;;;;;24.90;18.33;;;;;;;;;;5103227;27;20023;-75
2023/01/06 08:44:25;;;;;;;23.70;17.42;;;;;;;;;;5108927;27;20032;-75
2023/01/06 08:46:50;;;;;;;47.03;35.75;;;;;;;;;;5115048;27;20024;-73
2023/01/06 08:49:16;;;;;;;14.65;9.40;;;;;;;;;;5097342;27;20031;-72
2023/01/06 08:51:41;;;;;;;25.38;18.10;;;;;;;;;;5118375;27;20110;-72
2023/01/06 08:54:06;;;;;;;47.75;34.83;;;;;;;;;;5116010;27;20112;-75
2023/01/06 08:56:32;;;;;;;53.72;36.25;;;;;;;;;;5118233;27;20027;-76
2023/01/06 08:58:58;;;;;;;20.42;15.05;;;;;;;;;;5108647;27;20039;-74
2023/01/06 09:01:26;;;;;;;14.45;11.02;;;;;;;;;;5103188;27;20095;-76
2023/01/06 09:03:51;;;;;;;21.33;12.32;;;;;;;;;;5101668;27;20035;-74
2023/01/06 09:06:17;;;;;;;42.83;27.55;;;;;;;;;;5101225;27;20462;-73
2023/01/06 09:08:42;;;;;;;14.00;9.48;;;;;;;;;;5118298;27;20069;-73
2023/01/06 09:11:09;;;;;;;22.65;15.88;;;;;;;;;;5108844;27;20311;-76
2023/01/06 09:13:34;;;;;;;9.93;5.95;;;;;;;;;;5081347;27;20491;-72
2023/01/06 09:16:01;;;;;;;16.60;9.13;;;;;;;;;;5100218;27;20035;-72
2023/01/06 09:18:26;;;;;;;27.08;17.27;;;;;;;;;;5099413;27;20019;-72
2023/01/06 09:20:51;;;;;;;18.55;11.88;;;;;;;;;;5113170;27;20077;-72
2023/01/06 09:23:16;;;;;;;17.85;12.32;;;;;;;;;;5106502;27;20035;-76
2023/01/06 09:25:42;;;;;;;12.20;9.30;;;;;;;;;;5105204;27;20064;-74
2023/01/06 09:28:09;;;;;;;13.52;8.75;;;;;;;;;;5098936;27;20031;-73
2023/01/06 09:30:34;;;;;;;17.02;11.82;;;;;;;;;;5101285;27;20019;-73
2023/01/06 09:33:00;;;;;;;23.25;13.63;;;;;;;;;;5110183;27;20043;-73
2023/01/06 09:35:25;;;;;;;23.63;14.63;;;;;;;;;;5100828;28;20038;-74
2023/01/06 09:37:50;;;;;;;20.27;13.10;;;;;;;;;;5107843;28;20331;-73
2023/01/06 09:40:17;;;;;;;8.93;6.35;;;;;;;;;;5116640;28;20114;-74
2023/01/06 09:42:48;;;;;;;7.95;5.93;;;;;;;;;;5114796;28;20062;-75
2023/01/06 09:45:17;;;;;;;12.43;6.97;;;;;;;;;;5114656;28;20050;-77
2023/01/06 09:47:48;;;;;;;11.15;7.22;;;;;;;;;;5115227;28;20023;-74
2023/01/06 09:50:32;;;;;;;4.95;3.60;;;;;;;;;;5115688;28;20088;-77
2023/01/06 09:53:21;;;;;;;12.73;8.77;;;;;;;;;;5100610;28;20015;-74
2023/01/06 09:55:49;;;;;;;28.58;19.45;;;;;;;;;;5095564;28;20047;-74
2023/01/06 09:58:20;;;;;;;17.48;13.35;;;;;;;;;;5103884;28;20052;-74
2023/01/06 10:00:47;;;;;;;8.40;5.60;;;;;;;;;;5116795;28;20139;-75
2023/01/06 10:03:19;;;;;;;7.65;5.82;;;;;;;;;;5099361;28;20043;-74
2023/01/06 10:06:03;;;;;;;12.13;7.18;;;;;;;;;;5081110;28;20023;-75
2023/01/06 10:08:47;;;;;;;7.50;5.68;;;;;;;;;;5099590;28;20032;-74
2023/01/06 10:11:14;;;;;;;13.27;9.10;;;;;;;;;;5098904;28;20499;-74
2023/01/06 10:13:55;;;;;;;14.88;9.93;;;;;;;;;;5100468;28;20417;-73
2023/01/06 10:16:31;;;;;;;11.05;6.88;;;;;;;;;;5097489;28;20468;-73
2023/01/06 10:18:56;;;;;;;17.92;13.40;;;;;;;;;;5103242;28;20286;-73
2023/01/06 10:21:42;;;;;;;18.95;12.10;;;;;;;;;;5103539;28;20019;-73
2023/01/06 10:24:26;;;;;;;8.98;6.63;;;;;;;;;;5103533;28;20027;-75
2023/01/06 10:27:00;;;;;;;11.00;7.93;;;;;;;;;;5101714;28;20026;-73
2023/01/06 10:29:31;;;;;;;8.02;5.88;;;;;;;;;;5096598;27;20107;-76
2023/01/06 10:31:57;;;;;;;19.35;17.30;;;;;;;;;;5105031;27;20400;-75
2023/01/06 10:34:26;;;;;;;18.15;12.90;;;;;;;;;;5100525;27;20446;-78
2023/01/06 10:37:04;;;;;;;38.78;24.92;;;;;;;;;;5103544;27;20038;-74
2023/01/06 10:39:30;;;;;;;22.85;14.77;;;;;;;;;;5117645;27;20102;-72
2023/01/06 10:42:54;;;;;;;19.20;14.18;;;;;;;;;;5118093;27;20723;-73
2023/01/06 10:44:45;;;;;;;19.45;14.23;;;;;;;;;;5117376;27;20669;-72
2023/01/06 10:47:27;;;;;;;13.55;11.05;;;;;;;;;;5118246;27;20432;-78
2023/01/06 10:49:52;;;;;;;20.13;16.10;;;;;;;;;;5117776;27;20019;-74
2023/01/06 10:52:18;;;;;;;22.25;19.63;;;;;;;;;;5120163;27;20030;-74
2023/01/06 10:54:43;;;;;;;10.48;8.52;;;;;;;;;;5118108;27;20073;-75
2023/01/06 10:57:16;;;;;;;11.65;10.20;;;;;;;;;;5119369;27;20327;-72
2023/01/06 11:00:01;;;;;;;11.32;8.77;;;;;;;;;;5116112;27;20062;-74
2023/01/06 11:02:27;;;;;;;13.57;10.13;;;;;;;;;;5111178;27;20056;-75
2023/01/06 11:04:53;;;;;;;14.80;9.65;;;;;;;;;;5103718;27;20028;-76
2023/01/06 11:07:18;;;;;;;16.05;10.32;;;;;;;;;;5105678;27;20071;-74
2023/01/06 11:09:44;;;;;;;16.75;13.00;;;;;;;;;;5104376;27;20023;-75
2023/01/06 11:12:18;;;;;;;8.00;7.05;;;;;;;;;;5103515;27;20031;-74
2023/01/06 11:14:49;;;;;;;10.35;7.95;;;;;;;;;;5104793;27;20503;-76
2023/01/06 11:17:14;;;;;;;6.53;5.78;;;;;;;;;;5084811;27;20031;-75
2023/01/06 11:19:43;;;;;;;8.75;6.97;;;;;;;;;;5105343;27;20294;-74
2023/01/06 11:22:30;;;;;;;19.75;15.27;;;;;;;;;;5086759;28;20346;-73
2023/01/06 11:24:55;;;;;;;10.48;8.20;;;;;;;;;;5102306;27;20967;-74
2023/01/06 11:27:21;;;;;;;11.35;7.70;;;;;;;;;;5098507;27;20023;-74
2023/01/06 11:29:46;;;;;;;24.60;20.90;;;;;;;;;;5081796;27;20034;-75
2023/01/06 11:32:17;;;;;;;34.90;26.75;;;;;;;;;;5099425;27;20031;-77
2023/01/06 11:34:54;;;;;;;7.10;5.28;;;;;;;;;;5098610;27;20042;-74
2023/01/06 11:37:37;;;;;;;9.45;8.48;;;;;;;;;;5096815;27;20047;-77
2023/01/06 11:40:03;;;;;;;15.90;11.80;;;;;;;;;;5099367;27;20027;-74
2023/01/06 11:42:29;;;;;;;8.93;6.82;;;;;;;;;;5098471;27;20031;-77
2023/01/06 11:44:54;;;;;;;10.52;7.40;;;;;;;;;;5099325;27;20171;-74
2023/01/06 11:47:21;;;;;;;16.20;12.82;;;;;;;;;;5099293;27;20034;-73
2023/01/06 11:49:47;;;;;;;13.18;9.18;;;;;;;;;;5102526;27;20730;-74
2023/01/06 11:52:21;;;;;;;14.90;11.90;;;;;;;;;;5103234;27;20057;-75
2023/01/06 11:54:55;;;;;;;17.25;13.90;;;;;;;;;;5099168;27;20548;-78
2023/01/06 11:57:27;;;;;;;9.40;7.07;;;;;;;;;;5090325;27;20027;-73
2023/01/06 12:00:00;;;;;;;11.73;8.88;;;;;;;;;;5095258;27;20099;-73
2023/01/06 12:02:39;;;;;;;28.00;19.75;;;;;;;;;;5101509;27;20066;-73
2023/01/06 12:05:09;;;;;;;14.70;10.90;;;;;;;;;;5094476;27;20451;-76
2023/01/06 12:07:41;;;;;;;19.83;14.73;;;;;;;;;;5102555;27;20024;-73
2023/01/06 12:10:13;;;;;;;23.02;18.67;;;;;;;;;;5084132;27;20516;-74
2023/01/06 12:12:38;;;;;;;12.30;8.40;;;;;;;;;;5103939;27;20051;-75
2023/01/06 12:15:09;;;;;;;21.15;16.00;;;;;;;;;;5102004;27;20086;-75
2023/01/06 12:17:42;;;;;;;12.52;8.38;;;;;;;;;;5102238;27;20040;-76
2023/01/06 12:20:22;;;;;;;17.60;11.40;;;;;;;;;;5103423;27;20080;-73
2023/01/06 12:23:10;;;;;;;10.57;8.13;;;;;;;;;;5083040;27;20383;-76
2023/01/06 12:25:46;;;;;;;11.65;7.13;;;;;;;;;;5063850;27;20114;-73
2023/01/06 12:28:17;;;;;;;20.48;15.88;;;;;;;;;;5083867;27;20342;-73
2023/01/06 12:31:00;;;;;;;26.77;20.63;;;;;;;;;;5103182;27;20350;-73
2023/01/06 12:33:34;;;;;;;20.13;16.10;;;;;;;;;;5103020;27;20026;-73
2023/01/06 12:36:05;;;;;;;13.48;8.20;;;;;;;;;;5100162;27;20038;-73
2023/01/06 12:38:49;;;;;;;7.97;5.95;;;;;;;;;;5100660;27;20023;-72
2023/01/06 12:41:25;;;;;;;11.75;8.48;;;;;;;;;;5101179;27;20033;-72
2023/01/06 12:44:02;;;;;;;15.32;11.57;;;;;;;;;;5102023;27;21006;-73
2023/01/06 12:46:30;;;;;;;13.13;9.00;;;;;;;;;;5103787;27;20030;-73
2023/01/06 12:49:10;;;;;;;7.78;6.70;;;;;;;;;;5102224;27;20138;-73
2023/01/06 12:51:40;;;;;;;9.20;7.88;;;;;;;;;;5102396;27;20026;-75
2023/01/06 12:54:10;;;;;;;8.70;7.40;;;;;;;;;;5102173;27;20102;-73
2023/01/06 12:56:46;;;;;;;11.23;10.00;;;;;;;;;;5105932;27;20449;-72
2023/01/06 12:59:33;;;;;;;6.85;5.20;;;;;;;;;;5116753;27;20048;-76
2023/01/06 13:02:17;;;;;;;14.35;11.20;;;;;;;;;;5107949;27;20038;-75
2023/01/06 13:04:43;;;;;;;12.50;10.40;;;;;;;;;;5110961;27;20023;-73
2023/01/06 13:07:11;;;;;;;10.30;8.30;;;;;;;;;;5116360;27;20079;-72
2023/01/06 13:09:50;;;;;;;25.00;16.98;;;;;;;;;;5117128;27;20027;-76
2023/01/06 13:12:21;;;;;;;10.55;8.60;;;;;;;;;;5112845;27;20430;-74
2023/01/06 13:14:50;;;;;;;14.45;10.32;;;;;;;;;;5116214;27;20446;-73
2023/01/06 13:17:18;;;;;;;20.85;13.57;;;;;;;;;;5115768;27;20084;-74
2023/01/06 13:19:43;;;;;;;19.70;11.52;;;;;;;;;;5117232;27;20019;-74
2023/01/06 13:22:11;;;;;;;13.10;9.43;;;;;;;;;;5116510;27;20395;-73
2023/01/06 13:24:48;;;;;;;11.60;8.48;;;;;;;;;;5114687;27;20035;-76
2023/01/06 13:27:34;;;;;;;19.30;13.60;;;;;;;;;;5082394;27;20023;-74
2023/01/06 13:30:27;;;;;;;13.43;11.40;;;;;;;;;;5100896;27;20120;-75
2023/01/06 13:33:11;;;;;;;14.50;11.30;;;;;;;;;;5100722;27;20126;-73
2023/01/06 13:35:53;;;;;;;16.13;12.80;;;;;;;;;;5083912;28;20436;-73
2023/01/06 13:38:34;;;;;;;27.30;21.67;;;;;;;;;;5104070;28;20028;-73
2023/01/06 13:41:01;;;;;;;36.88;28.83;;;;;;;;;;5112862;28;20027;-73
2023/01/06 13:43:30;;;;;;;35.25;26.90;;;;;;;;;;5117638;28;20027;-77
2023/01/06 13:45:57;;;;;;;21.33;17.83;;;;;;;;;;5102950;28;20450;-76
2023/01/06 13:48:25;;;;;;;22.02;16.00;;;;;;;;;;5111406;28;20084;-74
2023/01/06 13:50:51;;;;;;;16.17;12.85;;;;;;;;;;5103999;28;20030;-74
2023/01/06 13:53:18;;;;;;;13.20;10.23;;;;;;;;;;5089045;28;20031;-76
2023/01/06 13:55:43;;;;;;;19.05;14.48;;;;;;;;;;5113599;28;20168;-76
2023/01/06 13:58:29;;;;;;;13.40;11.68;;;;;;;;;;5080955;28;20430;-75
2023/01/06 14:01:06;;;;;;;17.70;14.57;;;;;;;;;;5102715;28;20029;-75
2023/01/06 14:03:32;;;;;;;10.85;8.20;;;;;;;;;;5110321;27;20027;-73
2023/01/06 14:05:59;;;;;;;13.82;11.30;;;;;;;;;;5118823;27;20445;-74
2023/01/06 14:08:26;;;;;;;14.52;11.57;;;;;;;;;;5117233;27;20042;-74
2023/01/06 14:11:01;;;;;;;18.95;14.60;;;;;;;;;;5115691;27;20023;-74
2023/01/06 14:13:26;;;;;;;24.15;18.77;;;;;;;;;;5116138;27;20054;-74
2023/01/06 14:15:54;;;;;;;20.30;14.48;;;;;;;;;;5117999;27;20047;-74
2023/01/06 14:18:52;;;;;;;11.52;8.75;;;;;;;;;;5116351;27;20023;-73
2023/01/06 14:21:27;;;;;;;16.00;12.90;;;;;;;;;;5102811;27;20369;-74
2023/01/06 14:24:19;;;;;;;30.33;23.80;;;;;;;;;;5117321;27;20046;-76
2023/01/06 14:26:46;;;;;;;29.40;23.45;;;;;;;;;;5104371;27;20023;-74
2023/01/06 14:29:30;;;;;;;22.88;16.50;;;;;;;;;;5061365;27;20074;-76
2023/01/06 14:31:55;;;;;;;32.13;22.67;;;;;;;;;;5086466;28;20111;-76
2023/01/06 14:34:21;;;;;;;27.75;19.95;;;;;;;;;;5096971;28;20429;-72
2023/01/06 14:36:48;;;;;;;18.85;14.85;;;;;;;;;;5096869;28;20024;-74
2023/01/06 14:39:19;;;;;;;52.92;37.72;;;;;;;;;;5096042;28;20594;-75